createdAt,value
2019-01-22T00:00:07.579Z,3.40
2019-01-22T00:02:36.142Z,3.47
2019-01-22T00:05:06.713Z,3.30
2019-01-22T00:07:34.962Z,3.53
2019-01-22T00:10:04.652Z,3.47
2019-01-22T00:12:32.893Z,3.20
2019-01-22T00:15:01.714Z,3.10
2019-01-22T00:17:29.957Z,2.90
2019-01-22T00:19:58.564Z,3.13
2019-01-22T00:22:26.812Z,3.60
2019-01-22T00:24:55.049Z,3.20
2019-01-22T00:27:23.286Z,3.30
2019-01-22T00:29:51.526Z,3.40
2019-01-22T00:32:19.761Z,2.73
2019-01-22T00:34:48.381Z,3.67
2019-01-22T00:37:17.285Z,3.47
2019-01-22T00:39:45.533Z,3.20
2019-01-22T00:42:13.765Z,3.10
2019-01-22T00:44:42.028Z,2.80
2019-01-22T00:47:10.339Z,3.27
2019-01-22T00:49:38.581Z,3.30
2019-01-22T00:52:06.812Z,3.10
2019-01-22T00:54:35.082Z,2.77
2019-01-22T00:57:03.385Z,2.93
2019-01-22T00:59:31.645Z,2.77
2019-01-22T01:01:59.877Z,2.93
2019-01-22T01:04:28.122Z,3.00
2019-01-22T01:06:56.357Z,3.33
2019-01-22T01:09:24.596Z,2.63
2019-01-22T01:11:52.830Z,2.90
2019-01-22T01:14:21.068Z,2.97
2019-01-22T01:16:49.974Z,2.97
2019-01-22T01:19:18.240Z,2.80
2019-01-22T01:21:46.470Z,3.13
2019-01-22T01:24:14.717Z,2.83
2019-01-22T01:26:43.614Z,2.90
2019-01-22T01:29:11.882Z,2.87
2019-01-22T01:31:40.426Z,2.77
2019-01-22T01:34:11.905Z,2.70
2019-01-22T01:36:40.161Z,3.50
2019-01-22T01:39:09.082Z,2.90
2019-01-22T01:41:37.313Z,2.80
2019-01-22T01:44:05.555Z,2.70
2019-01-22T01:46:34.188Z,2.60
2019-01-22T01:49:02.417Z,2.60
2019-01-22T01:51:30.760Z,2.70
2019-01-22T01:53:59.009Z,2.70
2019-01-22T01:56:27.250Z,2.77
2019-01-22T01:58:55.504Z,2.80
2019-01-22T02:01:24.133Z,3.00
2019-01-22T02:03:52.356Z,3.00
2019-01-22T02:06:20.625Z,2.60
2019-01-22T02:08:48.953Z,2.63
2019-01-22T02:11:17.189Z,3.27
2019-01-22T02:13:45.489Z,2.63
2019-01-22T02:16:23.106Z,2.70
2019-01-22T02:19:12.469Z,2.70
2019-01-22T02:22:02.104Z,2.70
2019-01-22T02:24:39.340Z,2.90
2019-01-22T02:27:25.802Z,2.67
2019-01-22T02:30:21.393Z,2.27
2019-01-22T02:33:11.088Z,2.67
2019-01-22T02:35:48.169Z,2.60
2019-01-22T02:38:34.596Z,1.87
2019-01-22T02:41:06.082Z,2.40
2019-01-22T02:43:54.050Z,2.67
2019-01-22T02:46:31.507Z,2.53
2019-01-22T02:49:37.966Z,2.30
2019-01-22T02:52:27.780Z,2.70
2019-01-22T02:54:59.378Z,2.70
2019-01-22T02:57:42.726Z,2.37
2019-01-22T03:00:26.169Z,2.50
2019-01-22T03:03:18.307Z,2.40
2019-01-22T03:05:52.780Z,2.73
2019-01-22T03:08:45.785Z,2.53
2019-01-22T03:11:38.332Z,2.43
2019-01-22T03:14:34.796Z,2.50
2019-01-22T03:17:22.606Z,2.47
2019-01-22T03:20:00.258Z,2.70
2019-01-22T03:22:37.593Z,2.10
2019-01-22T03:25:17.860Z,2.50
2019-01-22T03:27:55.506Z,2.50
2019-01-22T03:30:43.607Z,3.00
2019-01-22T03:33:32.956Z,2.57
2019-01-22T03:36:22.878Z,2.53
2019-01-22T03:39:13.466Z,2.30
2019-01-22T03:42:00.009Z,2.50
2019-01-22T03:44:46.129Z,2.27
2019-01-22T03:47:23.354Z,2.33
2019-01-22T03:50:06.788Z,2.33
2019-01-22T03:53:01.922Z,2.00
2019-01-22T03:55:48.234Z,1.87
2019-01-22T03:58:16.469Z,2.07
2019-01-22T04:00:44.711Z,2.17
2019-01-22T04:03:12.949Z,2.00
2019-01-22T04:05:41.262Z,2.23
2019-01-22T04:08:09.498Z,2.33
2019-01-22T04:10:38.013Z,2.27
2019-01-22T04:13:06.526Z,2.07
2019-01-22T04:15:36.972Z,2.13
2019-01-22T04:18:05.787Z,1.93
2019-01-22T04:20:34.112Z,2.00
2019-01-22T04:23:02.677Z,2.10
2019-01-22T04:25:42.914Z,2.30
2019-01-22T04:28:32.489Z,2.13
2019-01-22T04:31:06.591Z,2.60
2019-01-22T04:34:01.222Z,2.10
2019-01-22T04:36:50.199Z,2.20
2019-01-22T04:39:48.825Z,2.30
2019-01-22T04:42:32.327Z,1.97
2019-01-22T04:45:28.079Z,2.20
2019-01-22T04:48:20.506Z,2.40
2019-01-22T04:50:54.897Z,2.20
2019-01-22T04:53:41.598Z,2.40
2019-01-22T04:56:18.893Z,2.27
2019-01-22T04:58:53.376Z,1.80
2019-01-22T05:01:24.883Z,1.83
2019-01-22T05:04:05.447Z,1.90
2019-01-22T05:06:52.452Z,2.13
2019-01-22T05:09:35.877Z,1.80
2019-01-22T05:12:19.810Z,2.30
2019-01-22T05:14:51.371Z,2.47
2019-01-22T05:17:22.872Z,1.87
2019-01-22T05:19:54.374Z,1.83
2019-01-22T05:22:25.874Z,1.93
2019-01-22T05:25:09.279Z,2.10
2019-01-22T05:27:43.505Z,1.60
2019-01-22T05:30:27.035Z,2.23
2019-01-22T05:33:18.525Z,1.83
2019-01-22T05:36:06.825Z,2.10
2019-01-22T05:38:38.443Z,1.97
2019-01-22T05:41:22.145Z,1.70
2019-01-22T05:43:53.730Z,1.50
2019-01-22T05:46:34.065Z,1.77
2019-01-22T05:49:26.355Z,1.80
2019-01-22T05:52:00.829Z,1.87
2019-01-22T05:54:41.246Z,2.13
2019-01-22T05:57:12.121Z,1.80
2019-01-22T05:59:55.479Z,1.80
2019-01-22T06:02:27.001Z,1.90
2019-01-22T06:05:04.395Z,1.70
2019-01-22T06:07:55.537Z,2.13
2019-01-22T06:10:48.458Z,4.00
2019-01-22T06:13:34.811Z,12.67
2019-01-22T06:16:08.862Z,17.57
2019-01-22T06:18:40.433Z,18.23
2019-01-22T06:21:17.727Z,18.33
2019-01-22T06:24:10.066Z,17.03
2019-01-22T06:26:50.510Z,16.73
2019-01-22T06:29:33.330Z,15.63
2019-01-22T06:32:17.066Z,14.43
2019-01-22T06:35:07.908Z,14.30
2019-01-22T06:37:39.518Z,13.23
2019-01-22T06:40:16.764Z,12.97
2019-01-22T06:43:18.314Z,12.87
2019-01-22T06:45:52.689Z,14.00
2019-01-22T06:48:24.230Z,12.90
2019-01-22T06:51:13.261Z,12.80
2019-01-22T06:53:50.561Z,10.50
2019-01-22T06:56:36.801Z,9.63
2019-01-22T06:59:11.031Z,10.07
2019-01-22T07:01:54.638Z,10.43
2019-01-22T07:04:40.839Z,10.03
2019-01-22T07:07:33.361Z,9.13
2019-01-22T07:10:07.573Z,7.67
2019-01-22T07:12:56.846Z,8.70
2019-01-22T07:15:37.545Z,9.03
2019-01-22T07:18:24.128Z,8.53
2019-01-22T07:21:20.110Z,7.60
2019-01-22T07:24:00.586Z,8.57
2019-01-22T07:26:50.273Z,7.50
2019-01-22T07:29:38.473Z,8.30
2019-01-22T07:32:22.243Z,7.23
2019-01-22T07:35:23.952Z,6.30
2019-01-22T07:38:04.626Z,5.90
2019-01-22T07:40:58.906Z,7.10
2019-01-22T07:43:33.314Z,5.97
2019-01-22T07:46:35.410Z,5.60
2019-01-22T07:49:28.963Z,5.80
2019-01-22T07:52:03.424Z,5.80
2019-01-22T07:54:34.913Z,5.57
2019-01-22T07:57:18.196Z,5.53
2019-01-22T08:00:01.691Z,4.90
2019-01-22T08:02:33.197Z,5.97
2019-01-22T08:05:23.837Z,5.23
2019-01-22T08:08:20.960Z,5.10
2019-01-22T08:11:11.723Z,5.37
2019-01-22T08:13:55.209Z,5.37
2019-01-22T08:16:44.577Z,5.37
2019-01-22T08:19:21.567Z,5.33
2019-01-22T08:22:01.921Z,5.10
2019-01-22T08:24:45.265Z,4.87
2019-01-22T08:27:23.002Z,4.87
2019-01-22T08:29:57.365Z,4.83
2019-01-22T08:32:34.705Z,4.60
2019-01-22T08:35:14.840Z,4.40
2019-01-22T08:38:05.939Z,4.53
2019-01-22T08:40:55.310Z,4.37
2019-01-22T08:43:38.657Z,4.73
2019-01-22T08:46:10.250Z,4.60
2019-01-22T08:49:15.166Z,4.53
2019-01-22T08:51:55.385Z,4.50
2019-01-22T08:54:44.282Z,4.63
2019-01-22T08:57:15.839Z,4.30
2019-01-22T08:59:47.408Z,4.10
2019-01-22T09:02:33.382Z,4.50
2019-01-22T09:05:28.875Z,3.97
2019-01-22T09:08:15.182Z,3.90
2019-01-22T09:11:03.399Z,4.33
2019-01-22T09:13:51.212Z,4.20
2019-01-22T09:16:31.427Z,3.90
2019-01-22T09:19:05.410Z,4.07
2019-01-22T09:21:45.873Z,4.50
2019-01-22T09:24:20.309Z,4.27
2019-01-22T09:27:13.001Z,4.33
2019-01-22T09:29:47.181Z,3.50
2019-01-22T09:32:24.425Z,4.00
2019-01-22T09:35:29.332Z,3.60
2019-01-22T09:37:58.315Z,3.80
2019-01-22T09:40:26.549Z,3.77
2019-01-22T09:42:54.793Z,4.00
2019-01-22T09:45:23.038Z,4.03
2019-01-22T09:47:51.281Z,4.07
2019-01-22T09:50:19.514Z,4.03
2019-01-22T09:52:47.762Z,4.30
2019-01-22T09:55:22.148Z,3.47
2019-01-22T09:57:45.965Z,4.20
2019-01-22T10:00:19.405Z,4.10
2019-01-22T10:02:47.650Z,3.37
2019-01-22T10:05:16.049Z,3.40
2019-01-22T10:07:44.289Z,3.93
2019-01-22T10:10:18.274Z,3.40
2019-01-22T10:12:46.522Z,3.47
2019-01-22T10:15:17.649Z,3.60
2019-01-22T10:17:45.889Z,3.43
2019-01-22T10:20:17.065Z,3.20
2019-01-22T10:22:45.378Z,3.40
2019-01-22T10:25:13.614Z,3.40
2019-01-22T10:27:41.866Z,3.43
2019-01-22T10:30:18.937Z,3.20
2019-01-22T10:32:47.182Z,3.50
2019-01-22T10:35:15.414Z,3.10
2019-01-22T10:37:43.661Z,3.27
2019-01-22T10:40:17.622Z,3.10
2019-01-22T10:42:45.870Z,3.50
2019-01-22T10:45:16.049Z,3.40
2019-01-22T10:47:44.293Z,3.10
2019-01-22T10:50:20.457Z,3.30
2019-01-22T10:52:48.709Z,3.40
2019-01-22T10:55:16.934Z,3.53
2019-01-22T10:57:45.182Z,3.40
2019-01-22T11:00:25.154Z,2.80
2019-01-22T11:02:53.393Z,3.37
2019-01-22T11:05:24.886Z,3.03
2019-01-22T11:07:53.130Z,2.87
2019-01-22T11:10:21.365Z,3.30
2019-01-22T11:12:49.617Z,2.73
2019-01-22T11:15:17.846Z,2.80
2019-01-22T11:17:46.089Z,2.67
2019-01-22T11:20:30.753Z,2.90
2019-01-22T11:22:58.993Z,3.23
2019-01-22T11:25:31.957Z,2.93
2019-01-22T11:28:00.201Z,2.60
2019-01-22T11:30:28.436Z,2.90
2019-01-22T11:32:56.746Z,2.73
2019-01-22T11:35:25.413Z,3.13
2019-01-22T11:37:53.827Z,2.40
2019-01-22T11:40:37.253Z,2.80
2019-01-22T11:43:05.501Z,3.40
2019-01-22T11:45:33.737Z,2.80
2019-01-22T11:48:01.977Z,2.90
2019-01-22T11:50:30.218Z,3.03
2019-01-22T11:52:58.461Z,2.80
2019-01-22T11:55:26.688Z,2.53
2019-01-22T11:57:54.938Z,2.80
2019-01-22T12:00:39.013Z,2.67
2019-01-22T12:03:07.620Z,2.70
2019-01-22T12:05:35.902Z,2.70
2019-01-22T12:08:04.151Z,2.53
2019-01-22T12:10:32.385Z,2.50
2019-01-22T12:13:00.621Z,2.70
2019-01-22T12:15:32.119Z,2.70
2019-01-22T12:18:00.351Z,2.73
2019-01-22T12:20:31.718Z,2.83
2019-01-22T12:23:00.010Z,2.70
2019-01-22T12:25:28.259Z,2.40
2019-01-22T12:27:56.489Z,2.20
2019-01-22T12:30:29.969Z,2.30
2019-01-22T12:32:58.200Z,2.83
2019-01-22T12:35:26.441Z,2.70
2019-01-22T12:37:54.677Z,2.53
2019-01-22T12:40:24.965Z,2.70
2019-01-22T12:42:53.369Z,2.67
2019-01-22T12:45:23.845Z,2.90
2019-01-22T12:47:52.077Z,2.63
2019-01-22T12:50:25.933Z,2.87
2019-01-22T12:52:52.322Z,2.60
2019-01-22T12:55:20.570Z,2.50
2019-01-22T12:57:48.804Z,2.87
2019-01-22T13:00:25.082Z,3.17
2019-01-22T13:02:53.316Z,2.70
2019-01-22T13:05:42.882Z,2.70
2019-01-22T13:08:11.113Z,2.60
2019-01-22T13:10:39.360Z,3.07
2019-01-22T13:13:07.585Z,3.03
2019-01-22T13:15:35.830Z,2.90
2019-01-22T13:18:04.065Z,3.43
2019-01-22T13:20:32.309Z,2.80
2019-01-22T13:23:00.538Z,2.53
2019-01-22T13:25:28.789Z,2.63
2019-01-22T13:27:57.014Z,2.70
2019-01-22T13:30:26.994Z,3.00
2019-01-22T13:32:55.226Z,3.23
2019-01-22T13:35:23.464Z,3.03
2019-01-22T13:37:51.696Z,2.70
2019-01-22T13:40:19.945Z,2.90
2019-01-22T13:42:48.182Z,3.17
2019-01-22T13:45:25.319Z,3.30
2019-01-22T13:47:54.419Z,3.60
2019-01-22T13:50:22.674Z,2.90
2019-01-22T13:52:50.940Z,3.37
2019-01-22T13:55:27.622Z,2.97
2019-01-22T13:57:55.849Z,3.77
2019-01-22T14:00:26.236Z,2.67
2019-01-22T14:02:55.105Z,3.20
2019-01-22T14:05:23.346Z,3.23
2019-01-22T14:07:51.578Z,2.87
2019-01-22T14:10:19.837Z,3.07
2019-01-22T14:12:48.065Z,3.60
2019-01-22T14:15:18.968Z,3.50
2019-01-22T14:17:47.244Z,3.10
2019-01-22T14:20:17.030Z,2.50
2019-01-22T14:22:45.266Z,2.63
2019-01-22T14:25:16.375Z,2.83
2019-01-22T14:27:44.605Z,2.90
2019-01-22T14:30:21.994Z,2.87
2019-01-22T14:32:50.233Z,3.37
2019-01-22T14:35:18.478Z,3.23
2019-01-22T14:37:46.877Z,3.03
2019-01-22T14:40:15.593Z,3.03
2019-01-22T14:42:43.825Z,3.20
2019-01-22T14:45:19.571Z,2.93
2019-01-22T14:47:47.801Z,2.93
2019-01-22T14:50:21.424Z,2.70
2019-01-22T14:52:49.654Z,2.90
2019-01-22T14:55:17.929Z,3.10
2019-01-22T14:57:46.165Z,2.97
2019-01-22T15:00:17.394Z,2.30
2019-01-22T15:02:45.642Z,2.77
2019-01-22T15:05:13.893Z,2.40
2019-01-22T15:07:42.137Z,2.57
2019-01-22T15:10:13.010Z,3.50
2019-01-22T15:12:43.957Z,2.53
2019-01-22T15:15:14.431Z,3.10
2019-01-22T15:17:43.339Z,2.93
2019-01-22T15:20:23.029Z,2.50
2019-01-22T15:22:51.279Z,2.50
2019-01-22T15:25:19.517Z,3.33
2019-01-22T15:27:47.764Z,8.57
2019-01-22T15:30:22.185Z,7.43
2019-01-22T15:32:50.424Z,4.00
2019-01-22T15:35:18.660Z,4.00
2019-01-22T15:37:46.897Z,4.70
2019-01-22T15:40:18.027Z,4.63
2019-01-22T15:42:46.281Z,3.63
2019-01-22T15:45:14.533Z,4.93
2019-01-22T15:47:42.774Z,4.43
2019-01-22T15:50:19.528Z,4.60
2019-01-22T15:52:47.770Z,4.90
2019-01-22T15:55:21.809Z,4.30
2019-01-22T15:57:50.057Z,5.07
2019-01-22T16:00:20.995Z,4.47
2019-01-22T16:02:49.242Z,4.37
2019-01-22T16:05:17.474Z,4.23
2019-01-22T16:07:45.725Z,3.90
2019-01-22T16:10:13.954Z,3.93
2019-01-22T16:12:42.873Z,4.17
2019-01-22T16:15:22.449Z,4.90
2019-01-22T16:17:51.034Z,4.40
2019-01-22T16:20:20.997Z,4.17
2019-01-22T16:22:49.261Z,4.13
2019-01-22T16:25:17.485Z,4.07
2019-01-22T16:27:45.737Z,3.67
2019-01-22T16:30:16.313Z,3.87
2019-01-22T16:32:44.563Z,4.20
2019-01-22T16:35:15.129Z,3.97
2019-01-22T16:37:43.370Z,3.73
2019-01-22T16:40:15.856Z,3.93
2019-01-22T16:42:44.177Z,3.87
2019-01-22T16:45:24.597Z,4.70
2019-01-22T16:47:52.845Z,4.23
2019-01-22T16:50:21.091Z,4.20
2019-01-22T16:52:49.665Z,3.57
2019-01-22T16:55:29.719Z,3.67
2019-01-22T16:57:57.964Z,3.87
2019-01-22T17:00:31.170Z,3.63
2019-01-22T17:02:59.413Z,3.73
2019-01-22T17:05:27.715Z,3.63
2019-01-22T17:07:55.957Z,3.50
2019-01-22T17:10:24.518Z,3.37
2019-01-22T17:12:52.765Z,3.60
2019-01-22T17:15:21.001Z,3.70
2019-01-22T17:17:49.247Z,3.43
2019-01-22T17:20:29.048Z,3.47
2019-01-22T17:23:01.997Z,3.40
2019-01-22T17:25:27.245Z,4.23
2019-01-22T17:27:55.489Z,3.73
2019-01-22T17:30:23.893Z,3.73
2019-01-22T17:32:53.775Z,3.60
2019-01-22T17:35:22.015Z,3.90
2019-01-22T17:37:50.269Z,4.13
2019-01-22T17:40:18.510Z,3.13
2019-01-22T17:42:46.741Z,4.07
2019-01-22T17:45:14.991Z,3.47
2019-01-22T17:47:43.221Z,3.77
2019-01-22T17:50:15.968Z,3.50
2019-01-22T17:52:44.202Z,3.70
2019-01-22T17:55:13.085Z,3.40
2019-01-22T17:57:41.319Z,4.07
2019-01-22T18:00:16.321Z,3.13
2019-01-22T18:02:44.591Z,3.27
2019-01-22T18:05:14.916Z,3.10
2019-01-22T18:07:43.145Z,3.60
2019-01-22T18:10:14.194Z,3.47
2019-01-22T18:12:42.422Z,3.27
2019-01-22T18:15:12.918Z,3.40
2019-01-22T18:17:41.146Z,3.53
2019-01-22T18:20:17.834Z,3.37
2019-01-22T18:22:46.074Z,3.47
2019-01-22T18:25:14.324Z,3.13
2019-01-22T18:27:42.553Z,3.37
2019-01-22T18:30:16.917Z,3.30
2019-01-22T18:32:45.157Z,3.33
2019-01-22T18:35:22.396Z,3.10
2019-01-22T18:37:50.880Z,3.03
2019-01-22T18:40:19.125Z,3.13
2019-01-22T18:42:47.446Z,3.10
2019-01-22T18:45:17.329Z,3.00
2019-01-22T18:47:45.566Z,3.63
2019-01-22T18:50:19.458Z,3.20
2019-01-22T18:52:47.687Z,3.77
2019-01-22T18:55:15.994Z,3.73
2019-01-22T18:57:44.229Z,3.57
2019-01-22T19:00:15.815Z,4.63
2019-01-22T19:02:44.059Z,3.63
2019-01-22T19:05:12.297Z,3.10
2019-01-22T19:07:40.538Z,3.50
2019-01-22T19:10:14.487Z,3.07
2019-01-22T19:12:42.725Z,4.13
2019-01-22T19:15:13.816Z,3.03
2019-01-22T19:17:42.041Z,3.50
2019-01-22T19:20:10.822Z,3.30
2019-01-22T19:22:39.069Z,3.83
2019-01-22T19:25:12.886Z,2.70
2019-01-22T19:27:42.905Z,3.17
2019-01-22T19:30:16.246Z,3.20
2019-01-22T19:32:44.484Z,3.47
2019-01-22T19:35:12.713Z,3.23
2019-01-22T19:37:40.962Z,3.80
2019-01-22T19:40:14.434Z,3.17
2019-01-22T19:42:42.683Z,3.50
2019-01-22T19:45:18.449Z,2.93
2019-01-22T19:47:47.553Z,3.07
2019-01-22T19:50:16.782Z,3.53
2019-01-22T19:52:45.042Z,3.50
2019-01-22T19:55:13.441Z,3.20
2019-01-22T19:57:41.686Z,3.07
2019-01-22T20:00:28.398Z,3.03
2019-01-22T20:02:56.637Z,3.20
2019-01-22T20:05:24.937Z,3.13
2019-01-22T20:07:53.182Z,3.00
2019-01-22T20:10:21.410Z,3.37
2019-01-22T20:12:49.666Z,3.13
2019-01-22T20:15:20.803Z,2.87
2019-01-22T20:17:49.038Z,2.83
2019-01-22T20:20:18.513Z,2.97
2019-01-22T20:22:46.766Z,3.00
2019-01-22T20:25:15.738Z,2.73
2019-01-22T20:27:47.990Z,3.17
2019-01-22T20:30:26.045Z,3.23
2019-01-22T20:32:54.286Z,3.30
2019-01-22T20:35:22.521Z,3.67
2019-01-22T20:37:50.766Z,3.20
2019-01-22T20:40:19.073Z,3.33
2019-01-22T20:42:47.309Z,3.00
2019-01-22T20:45:20.866Z,3.10
2019-01-22T20:47:49.185Z,3.30
2019-01-22T20:50:19.317Z,3.10
2019-01-22T20:52:47.385Z,3.00
2019-01-22T20:55:18.421Z,2.93
2019-01-22T20:57:46.653Z,3.33
2019-01-22T21:00:16.835Z,3.30
2019-01-22T21:02:45.070Z,3.13
2019-01-22T21:05:16.007Z,3.30
2019-01-22T21:07:44.278Z,2.87
2019-01-22T21:10:20.913Z,2.97
2019-01-22T21:12:49.150Z,3.00
2019-01-22T21:15:17.689Z,2.90
2019-01-22T21:17:45.920Z,2.90
2019-01-22T21:20:16.404Z,4.00
2019-01-22T21:22:44.638Z,9.87
2019-01-22T21:25:18.193Z,15.13
2019-01-22T21:27:46.436Z,12.70
2019-01-22T21:30:29.336Z,11.17
2019-01-22T21:32:57.577Z,10.83
2019-01-22T21:35:25.821Z,9.40
2019-01-22T21:37:54.060Z,9.70
2019-01-22T21:40:22.318Z,9.03
2019-01-22T21:42:50.722Z,8.07
2019-01-22T21:45:22.226Z,7.60
2019-01-22T21:47:50.461Z,7.60
2019-01-22T21:50:18.765Z,6.83
2019-01-22T21:52:46.997Z,6.37
2019-01-22T21:55:22.564Z,6.27
2019-01-22T21:57:50.794Z,7.07
2019-01-22T22:00:21.552Z,6.43
2019-01-22T22:02:49.774Z,6.53
2019-01-22T22:05:19.857Z,5.97
2019-01-22T22:07:48.094Z,6.30
2019-01-22T22:10:17.998Z,6.00
2019-01-22T22:12:46.224Z,6.10
2019-01-22T22:15:16.684Z,6.57
2019-01-22T22:17:44.913Z,5.93
2019-01-22T22:20:15.093Z,5.60
2019-01-22T22:22:43.321Z,5.27
2019-01-22T22:25:17.069Z,5.87
2019-01-22T22:27:45.311Z,5.80
2019-01-22T22:30:16.654Z,5.90
2019-01-22T22:32:44.885Z,5.60
2019-01-22T22:35:13.126Z,6.27
2019-01-22T22:37:41.357Z,5.60
2019-01-22T22:40:12.862Z,5.97
2019-01-22T22:42:41.105Z,5.57
2019-01-22T22:45:11.790Z,5.87
2019-01-22T22:47:40.018Z,6.00
2019-01-22T22:50:22.719Z,6.00
2019-01-22T22:52:50.950Z,5.17
2019-01-22T22:55:19.193Z,5.97
2019-01-22T22:57:47.432Z,5.40
2019-01-22T23:00:33.529Z,5.40
2019-01-22T23:03:02.461Z,5.13
2019-01-22T23:05:30.986Z,5.70
2019-01-22T23:07:59.217Z,5.83
2019-01-22T23:10:27.471Z,5.37
2019-01-22T23:12:55.701Z,5.23
2019-01-22T23:15:23.948Z,5.37
2019-01-22T23:17:52.177Z,5.30
2019-01-22T23:20:20.429Z,5.17
2019-01-22T23:22:48.657Z,5.17
2019-01-22T23:25:16.902Z,5.57
2019-01-22T23:27:45.209Z,5.03
2019-01-22T23:30:15.614Z,5.33
2019-01-22T23:32:43.866Z,4.93
2019-01-22T23:35:12.764Z,4.93
2019-01-22T23:37:41.006Z,5.13
2019-01-22T23:40:11.865Z,4.57
2019-01-22T23:42:40.106Z,4.83
2019-01-22T23:45:10.539Z,5.10
2019-01-22T23:47:39.053Z,5.27
2019-01-22T23:50:11.855Z,5.23
2019-01-22T23:52:40.090Z,4.97
2019-01-22T23:55:09.065Z,4.87
2019-01-22T23:57:37.385Z,5.13
